Time;durP1;ratioP1;P1;durP2;ratioP2;P2;SDS_P1;SDS_P2;PMS_P1;PMS_P2;Temp;Humidity;BMP_temperature;BMP_pressure;BME280_temperature;BME280_humidity;BME280_pressure;Samples;Min_cycle;Max_cycle;Signal;HPM_P1;HPM_P2
2022/09/11 00:00:06;;;;;;;8.55;6.22;;;;;;;-145.23;100.00;58621.06;4939746;28;20239;-67
2022/09/11 00:02:32;;;;;;;10.13;6.72;;;;;;;-145.23;100.00;58621.06;4944320;28;20355;-67
2022/09/11 00:04:59;;;;;;;9.38;6.72;;;;;;;-145.23;100.00;58621.06;4945006;28;20707;-68
2022/09/11 00:07:26;;;;;;;9.77;6.85;;;;;;;-145.23;100.00;58621.06;4942738;28;20310;-68
2022/09/11 00:09:53;;;;;;;8.50;6.40;;;;;;;-145.23;100.00;58621.06;4933095;28;20299;-68
2022/09/11 00:12:21;;;;;;;10.43;6.90;;;;;;;-145.23;100.00;58621.06;4946008;28;20336;-66
2022/09/11 00:14:47;;;;;;;8.15;6.53;;;;;;;-145.23;100.00;58621.06;4959739;28;20245;-65
2022/09/11 00:17:17;;;;;;;10.07;7.03;;;;;;;-145.23;100.00;58621.06;4951716;28;20337;-67
2022/09/11 00:19:43;;;;;;;8.60;6.70;;;;;;;-145.23;100.00;58621.06;4943085;28;20240;-67
2022/09/11 00:22:10;;;;;;;6.60;6.00;;;;;;;-145.23;100.00;58621.06;4945295;28;20270;-69
2022/09/11 00:24:37;;;;;;;6.68;6.00;;;;;;;-145.23;100.00;58621.06;4948309;28;20223;-67
2022/09/11 00:27:04;;;;;;;6.97;5.90;;;;;;;-145.23;100.00;58621.06;4943968;28;20271;-67
2022/09/11 00:29:32;;;;;;;7.68;5.40;;;;;;;-145.23;100.00;58621.06;4941971;28;20243;-67
2022/09/11 00:31:58;;;;;;;7.45;5.50;;;;;;;-145.23;100.00;58621.06;4945648;28;20274;-67
2022/09/11 00:34:25;;;;;;;4.97;4.57;;;;;;;-145.23;100.00;58621.06;4943732;28;20239;-68
2022/09/11 00:36:52;;;;;;;6.38;5.32;;;;;;;-145.23;100.00;58621.06;4941988;28;20827;-67
2022/09/11 00:39:18;;;;;;;6.68;6.07;;;;;;;-145.23;100.00;58621.06;4945699;28;20320;-67
2022/09/11 00:41:45;;;;;;;4.80;4.47;;;;;;;-145.23;100.00;58621.06;4944110;28;20627;-67
2022/09/11 00:44:45;;;;;;;7.18;5.70;;;;;;;-145.23;100.00;58621.06;4946511;28;20249;-69
2022/09/11 00:47:16;;;;;;;5.18;4.78;;;;;;;-145.23;100.00;58621.06;4940208;28;20277;-69
2022/09/11 00:49:45;;;;;;;5.55;5.15;;;;;;;-145.23;100.00;58621.06;4941544;28;20243;-69
2022/09/11 00:52:16;;;;;;;4.63;4.22;;;;;;;-145.23;100.00;58621.06;4945810;28;20306;-69
2022/09/11 00:54:48;;;;;;;4.90;4.40;;;;;;;-145.23;100.00;58621.06;4958102;28;20247;-69
2022/09/11 00:57:16;;;;;;;4.93;4.43;;;;;;;-145.23;100.00;58621.06;4943242;28;20327;-70
2022/09/11 01:00:01;;;;;;;4.35;3.95;;;;;;;-145.23;100.00;58621.06;4943226;28;20251;-69
2022/09/11 01:02:31;;;;;;;4.65;4.25;;;;;;;-145.23;100.00;58621.06;4942669;28;20227;-69
2022/09/11 01:04:58;;;;;;;4.65;4.18;;;;;;;-145.23;100.00;58621.06;4941525;28;20262;-70
2022/09/11 01:07:25;;;;;;;6.05;4.18;;;;;;;-145.23;100.00;58621.06;4939625;28;20258;-69
2022/09/11 01:09:53;;;;;;;4.28;3.90;;;;;;;-145.23;100.00;58621.06;4942909;28;20283;-70
2022/09/11 01:12:23;;;;;;;4.43;4.03;;;;;;;-145.23;100.00;58621.06;4944525;28;20337;-69
2022/09/11 01:14:54;;;;;;;4.82;4.43;;;;;;;-145.23;100.00;58621.06;4945709;28;20422;-69
2022/09/11 01:17:27;;;;;;;6.25;3.92;;;;;;;-145.23;100.00;58621.06;4946500;28;20250;-68
2022/09/11 01:20:14;;;;;;;5.75;4.45;;;;;;;-145.23;100.00;58621.06;4939771;28;20646;-68
2022/09/11 01:23:11;;;;;;;5.90;4.65;;;;;;;-145.23;100.00;58621.06;4938097;28;20290;-69
2022/09/11 01:25:51;;;;;;;5.53;4.43;;;;;;;-145.23;100.00;58621.06;4940251;28;20314;-66
2022/09/11 01:28:21;;;;;;;4.75;4.30;;;;;;;-145.23;100.00;58621.06;4948217;28;20708;-65
2022/09/11 01:30:51;;;;;;;5.20;4.72;;;;;;;-145.23;100.00;58621.06;4936077;28;20238;-65
2022/09/11 01:33:22;;;;;;;5.32;4.82;;;;;;;-145.23;100.00;58621.06;4952398;28;20227;-66
2022/09/11 01:35:56;;;;;;;4.85;4.05;;;;;;;-145.23;100.00;58621.06;4946022;28;20242;-66
2022/09/11 01:38:30;;;;;;;5.05;4.60;;;;;;;-145.23;100.00;58621.06;4949164;28;20238;-65
2022/09/11 01:41:00;;;;;;;6.75;5.10;;;;;;;-145.23;100.00;58621.06;4945736;28;20292;-65
2022/09/11 01:43:30;;;;;;;5.05;4.50;;;;;;;-145.23;100.00;58621.06;4953205;28;20727;-66
2022/09/11 01:45:58;;;;;;;5.35;4.85;;;;;;;-145.23;100.00;58621.06;4952012;28;20267;-67
2022/09/11 01:48:27;;;;;;;4.90;4.43;;;;;;;-145.23;100.00;58621.06;4949040;28;20246;-66
2022/09/11 01:50:55;;;;;;;6.28;4.80;;;;;;;-145.23;100.00;58621.06;4952637;28;20250;-67
2022/09/11 01:53:25;;;;;;;4.78;4.05;;;;;;;-145.23;100.00;58621.06;4942164;28;20326;-67
2022/09/11 01:55:56;;;;;;;3.92;3.63;;;;;;;-145.23;100.00;58621.06;4945788;28;20235;-68
2022/09/11 01:58:26;;;;;;;5.55;4.03;;;;;;;-145.23;100.00;58621.06;4944165;28;20235;-67
2022/09/11 02:00:56;;;;;;;4.57;4.22;;;;;;;-145.23;100.00;58621.06;4946844;28;20246;-67
2022/09/11 02:03:25;;;;;;;4.50;4.10;;;;;;;-145.23;100.00;58621.06;4939792;28;20235;-69
2022/09/11 02:05:56;;;;;;;4.32;3.92;;;;;;;-145.23;100.00;58621.06;4937990;28;20235;-66
2022/09/11 02:08:27;;;;;;;4.45;4.05;;;;;;;-145.23;100.00;58621.06;4950271;28;20234;-66
2022/09/11 02:10:56;;;;;;;4.95;3.92;;;;;;;-145.23;100.00;58621.06;4952348;28;20874;-67
2022/09/11 02:13:28;;;;;;;4.03;3.75;;;;;;;-145.23;100.00;58621.06;4952094;28;20712;-67
2022/09/11 02:16:04;;;;;;;4.55;4.20;;;;;;;-145.23;100.00;58621.06;4948650;28;20239;-67
2022/09/11 02:18:41;;;;;;;4.13;3.78;;;;;;;-145.23;100.00;58621.06;4950865;28;20241;-67
2022/09/11 02:21:07;;;;;;;4.28;3.33;;;;;;;-145.23;100.00;58621.06;4952213;28;20863;-66
2022/09/11 02:23:34;;;;;;;4.22;3.92;;;;;;;-145.23;100.00;58621.06;4944134;28;20711;-66
2022/09/11 02:26:01;;;;;;;4.80;4.40;;;;;;;-145.23;100.00;58621.06;4948509;28;20243;-66
2022/09/11 02:28:27;;;;;;;4.22;3.92;;;;;;;-145.23;100.00;58621.06;4947963;28;20314;-66
2022/09/11 02:30:56;;;;;;;4.38;4.05;;;;;;;-145.23;100.00;58621.06;4951803;28;20275;-67
2022/09/11 02:33:27;;;;;;;6.38;3.55;;;;;;;-145.23;100.00;58621.06;4943773;28;20310;-66
2022/09/11 02:35:56;;;;;;;4.75;3.67;;;;;;;-145.23;100.00;58621.06;4937995;28;20250;-68
2022/09/11 02:38:28;;;;;;;3.80;3.50;;;;;;;-145.23;100.00;58621.06;4947086;28;20246;-67
2022/09/11 02:41:01;;;;;;;3.97;3.30;;;;;;;-145.23;100.00;58621.06;4951221;28;20546;-68
2022/09/11 02:43:43;;;;;;;3.88;3.58;;;;;;;-145.23;100.00;58621.06;4947773;28;20294;-66
2022/09/11 02:46:24;;;;;;;4.15;3.67;;;;;;;-145.23;100.00;58621.06;4952397;28;20618;-67
2022/09/11 02:48:56;;;;;;;4.78;4.35;;;;;;;-145.23;100.00;58621.06;4933145;28;20263;-67
2022/09/11 02:51:27;;;;;;;4.68;3.90;;;;;;;-145.23;100.00;58621.06;4944592;28;20235;-66
2022/09/11 02:54:01;;;;;;;4.15;3.75;;;;;;;-145.23;100.00;58621.06;4938255;28;20249;-69
2022/09/11 02:59:59;;;;;;;4.45;4.05;;;;;;;-145.23;100.00;58621.06;4899050;28;20311;-68
2022/09/11 03:02:29;;;;;;;5.45;4.90;;;;;;;-145.23;100.00;58621.06;4953855;28;20233;-67
2022/09/11 03:04:56;;;;;;;4.70;4.15;;;;;;;-145.23;100.00;58621.06;4948710;28;20235;-69
2022/09/11 03:07:23;;;;;;;4.78;4.32;;;;;;;-145.23;100.00;58621.06;4955182;28;20669;-68
2022/09/11 03:09:49;;;;;;;4.10;3.80;;;;;;;-145.23;100.00;58621.06;4950526;28;20251;-69
2022/09/11 03:12:16;;;;;;;5.85;4.15;;;;;;;-145.23;100.00;58621.06;4937136;28;20240;-68
2022/09/11 03:14:43;;;;;;;5.18;4.68;;;;;;;-145.23;100.00;58621.06;4948553;28;20250;-68
2022/09/11 03:17:09;;;;;;;4.97;4.55;;;;;;;-145.23;100.00;58621.06;4947762;28;20251;-68
2022/09/11 03:19:37;;;;;;;4.72;4.30;;;;;;;-145.23;100.00;58621.06;4951625;28;20334;-68
2022/09/11 03:22:05;;;;;;;6.80;6.15;;;;;;;-145.23;100.00;58621.06;4942380;28;20227;-71
2022/09/11 03:24:31;;;;;;;5.30;4.80;;;;;;;-145.23;100.00;58621.06;4942387;28;20231;-68
2022/09/11 03:26:58;;;;;;;6.30;5.63;;;;;;;-145.23;100.00;58621.06;4950788;28;20255;-68
2022/09/11 03:29:25;;;;;;;7.57;6.63;;;;;;;-145.23;100.00;58621.06;4947576;28;20247;-67
2022/09/11 03:31:51;;;;;;;8.80;7.65;;;;;;;-145.23;100.00;58621.06;4952644;28;20243;-68
2022/09/11 03:34:18;;;;;;;7.70;7.00;;;;;;;-145.23;100.00;58621.06;4949808;28;20725;-68
2022/09/11 03:36:46;;;;;;;7.20;6.50;;;;;;;-145.23;100.00;58621.06;4949352;28;20928;-68
2022/09/11 03:39:13;;;;;;;8.05;7.25;;;;;;;-145.23;100.00;58621.06;4945650;28;20306;-67
2022/09/11 03:41:40;;;;;;;10.57;9.15;;;;;;;-145.23;100.00;58621.06;4944159;28;20235;-67
2022/09/11 03:44:06;;;;;;;10.80;9.70;;;;;;;-145.23;100.00;58621.06;4944509;28;20323;-69
2022/09/11 03:46:33;;;;;;;10.10;9.20;;;;;;;-145.23;100.00;58621.06;4943202;28;20227;-67
2022/09/11 03:49:06;;;;;;;11.07;9.02;;;;;;;-145.23;100.00;58621.06;4944105;28;20861;-71
2022/09/11 03:51:34;;;;;;;9.18;8.27;;;;;;;-145.23;100.00;58621.06;4942241;28;20370;-67
2022/09/11 03:54:02;;;;;;;9.63;8.60;;;;;;;-145.23;100.00;58621.06;4937031;28;20279;-68
2022/09/11 03:56:29;;;;;;;10.00;8.88;;;;;;;-145.23;100.00;58621.06;4947039;28;20250;-66
2022/09/11 03:58:56;;;;;;;10.57;9.48;;;;;;;-145.23;100.00;58621.06;4951721;28;20321;-66
2022/09/11 04:01:23;;;;;;;10.73;9.27;;;;;;;-145.23;100.00;58621.06;4945915;28;20226;-68
2022/09/11 04:03:50;;;;;;;9.68;8.45;;;;;;;-145.23;100.00;58621.06;4946237;28;20762;-67
2022/09/11 04:06:16;;;;;;;8.52;7.70;;;;;;;-145.23;100.00;58621.06;4954706;28;20309;-67
2022/09/11 04:08:44;;;;;;;10.20;8.80;;;;;;;-145.23;100.00;58621.06;4944235;28;20330;-67
2022/09/11 04:11:13;;;;;;;9.07;8.27;;;;;;;-145.23;100.00;58621.06;4941877;28;20330;-67
2022/09/11 04:13:42;;;;;;;9.80;8.85;;;;;;;-145.23;100.00;58621.06;4949228;28;20254;-67
2022/09/11 04:16:11;;;;;;;12.90;9.10;;;;;;;-145.23;100.00;58621.06;4950286;28;20256;-68
2022/09/11 04:18:39;;;;;;;11.27;8.57;;;;;;;-145.23;100.00;58621.06;4947667;28;20238;-68
2022/09/11 04:21:06;;;;;;;9.05;7.82;;;;;;;-145.23;100.00;58621.06;4941749;28;20318;-70
2022/09/11 04:23:33;;;;;;;11.23;9.80;;;;;;;-145.23;100.00;58621.06;4951285;28;20245;-68
2022/09/11 04:26:00;;;;;;;11.77;8.95;;;;;;;-145.23;100.00;58621.06;4940119;28;20665;-67
2022/09/11 04:28:29;;;;;;;9.65;8.32;;;;;;;-145.23;100.00;58621.06;4948306;28;20345;-66
2022/09/11 04:30:56;;;;;;;11.40;9.88;;;;;;;-145.23;100.00;58621.06;4956905;28;20250;-67
2022/09/11 04:33:23;;;;;;;12.77;9.70;;;;;;;-145.23;100.00;58621.06;4943390;28;20227;-66
2022/09/11 04:35:50;;;;;;;11.27;8.85;;;;;;;-145.23;100.00;58621.06;4949374;28;20779;-68
2022/09/11 04:38:17;;;;;;;17.38;11.63;;;;;;;-145.23;100.00;58621.06;4948681;28;20250;-68
2022/09/11 04:40:44;;;;;;;11.45;10.25;;;;;;;-145.23;100.00;58621.06;4939962;28;20251;-67
2022/09/11 04:43:10;;;;;;;14.55;10.23;;;;;;;-145.23;100.00;58621.06;4945469;28;20242;-66
2022/09/11 04:45:39;;;;;;;13.43;10.23;;;;;;;-145.23;100.00;58621.06;4945843;28;20234;-68
2022/09/11 04:48:05;;;;;;;13.85;10.43;;;;;;;-145.23;100.00;58621.06;4942772;28;20745;-67
2022/09/11 04:50:32;;;;;;;13.27;10.85;;;;;;;-145.23;100.00;58621.06;4947906;28;20241;-66
2022/09/11 04:52:59;;;;;;;15.30;11.07;;;;;;;-145.23;100.00;58621.06;4949004;28;20247;-67
2022/09/11 04:55:26;;;;;;;13.25;10.43;;;;;;;-145.23;100.00;58621.06;4945376;28;20616;-67
2022/09/11 04:57:53;;;;;;;12.70;9.98;;;;;;;-145.23;100.00;58621.06;4952611;28;20557;-66
2022/09/11 05:00:30;;;;;;;;;;;;;;;;;;;;;
2022/09/11 05:02:58;;;;;;;14.20;10.15;;;;;;;-145.23;100.00;58621.06;4942220;28;20235;-66
2022/09/11 05:05:24;;;;;;;14.27;10.77;;;;;;;-145.23;100.00;58621.06;4944591;28;20254;-66
2022/09/11 05:07:51;;;;;;;15.07;10.70;;;;;;;-145.23;100.00;58621.06;4946695;28;20242;-67
2022/09/11 05:10:19;;;;;;;12.65;10.52;;;;;;;-145.23;100.00;58621.06;4949013;28;20234;-67
2022/09/11 05:12:45;;;;;;;16.73;12.93;;;;;;;-145.23;100.00;58621.06;4954447;28;20239;-68
2022/09/11 05:15:12;;;;;;;16.60;11.48;;;;;;;-145.23;100.00;58621.06;4955377;28;21343;-68
2022/09/11 05:17:39;;;;;;;14.00;11.32;;;;;;;-145.23;100.00;58621.06;4954479;28;20254;-67
2022/09/11 05:20:08;;;;;;;14.60;11.73;;;;;;;-145.23;100.00;58621.06;4947409;28;20627;-67
2022/09/11 05:22:34;;;;;;;13.68;11.52;;;;;;;-145.23;100.00;58621.06;4957857;28;20231;-67
2022/09/11 05:25:00;;;;;;;16.55;12.55;;;;;;;-145.23;100.00;58621.06;4952136;28;20242;-67
2022/09/11 05:27:27;;;;;;;18.33;12.70;;;;;;;-145.23;100.00;58621.06;4950578;28;20239;-67
2022/09/11 05:29:53;;;;;;;15.20;12.02;;;;;;;-145.23;100.00;58621.06;4951363;28;20293;-67
2022/09/11 05:32:20;;;;;;;18.45;13.52;;;;;;;-145.23;100.00;58621.06;4955318;28;20243;-67
2022/09/11 05:34:46;;;;;;;16.75;12.32;;;;;;;-145.23;100.00;58621.06;4950065;28;20231;-68
2022/09/11 05:37:14;;;;;;;18.35;11.88;;;;;;;-145.23;100.00;58621.06;4951590;28;20254;-68
2022/09/11 05:39:41;;;;;;;15.98;14.15;;;;;;;-145.23;100.00;58621.06;4944751;28;20224;-67
2022/09/11 05:42:07;;;;;;;21.00;13.52;;;;;;;-145.23;100.00;58621.06;4945183;28;20236;-66
2022/09/11 05:44:35;;;;;;;23.33;14.77;;;;;;;-145.23;100.00;58621.06;4949340;28;20232;-67
2022/09/11 05:47:02;;;;;;;20.75;13.30;;;;;;;-145.23;100.00;58621.06;4935662;28;20255;-66
2022/09/11 05:49:29;;;;;;;18.23;13.63;;;;;;;-145.23;100.00;58621.06;4943253;28;20325;-67
2022/09/11 05:51:55;;;;;;;19.25;14.95;;;;;;;-145.23;100.00;58621.06;4957013;28;20239;-67
2022/09/11 05:54:23;;;;;;;20.92;14.80;;;;;;;-145.23;100.00;58621.06;4951473;28;20234;-67
2022/09/11 05:56:50;;;;;;;22.73;14.65;;;;;;;-145.23;100.00;58621.06;4947001;28;20802;-67
2022/09/11 05:59:17;;;;;;;21.55;15.05;;;;;;;-145.23;100.00;58621.06;4943434;28;20238;-67
2022/09/11 06:01:43;;;;;;;22.05;15.77;;;;;;;-145.23;100.00;58621.06;4937894;28;20243;-68
2022/09/11 06:04:11;;;;;;;18.02;14.13;;;;;;;-145.23;100.00;58621.06;4946414;28;20258;-67
2022/09/11 06:06:38;;;;;;;22.10;16.38;;;;;;;-145.23;100.00;58621.06;4959769;28;20236;-68
2022/09/11 06:09:04;;;;;;;20.55;15.85;;;;;;;-145.23;100.00;58621.06;4957964;28;20256;-68
2022/09/11 06:11:32;;;;;;;22.85;15.18;;;;;;;-145.23;100.00;58621.06;4955152;28;20243;-67
2022/09/11 06:13:59;;;;;;;21.17;16.75;;;;;;;-145.23;100.00;58621.06;4949048;28;20254;-68
2022/09/11 06:16:28;;;;;;;18.08;14.43;;;;;;;-145.23;100.00;58621.06;4946875;28;20259;-68
2022/09/11 06:18:54;;;;;;;19.58;14.05;;;;;;;-145.23;100.00;58621.06;4947274;28;20270;-68
2022/09/11 06:21:22;;;;;;;16.17;14.05;;;;;;;-145.23;100.00;58621.06;4946644;28;20775;-68
2022/09/11 06:23:50;;;;;;;21.00;15.55;;;;;;;-145.23;100.00;58621.06;4941774;28;20474;-68
2022/09/11 06:26:20;;;;;;;22.42;15.73;;;;;;;-145.23;100.00;58621.06;4945709;28;20247;-69
2022/09/11 06:28:49;;;;;;;23.88;16.08;;;;;;;-145.23;100.00;58621.06;4938218;28;20234;-68
2022/09/11 06:31:18;;;;;;;21.52;16.35;;;;;;;-145.23;100.00;58621.06;4939307;28;20247;-68
2022/09/11 06:33:45;;;;;;;18.52;13.68;;;;;;;-145.23;100.00;58621.06;4940283;28;20234;-68
2022/09/11 06:36:13;;;;;;;18.30;13.07;;;;;;;-145.23;100.00;58621.06;4942506;28;20235;-67
2022/09/11 06:38:39;;;;;;;19.15;13.48;;;;;;;-145.23;100.00;58621.06;4942913;28;20556;-69
2022/09/11 06:41:07;;;;;;;17.55;13.35;;;;;;;-145.23;100.00;58621.06;4939218;28;20235;-68
2022/09/11 06:43:34;;;;;;;19.27;14.20;;;;;;;-145.23;100.00;58621.06;4936195;28;20235;-67
2022/09/11 06:46:04;;;;;;;20.02;15.30;;;;;;;-145.23;100.00;58621.06;4948825;28;20281;-67
2022/09/11 06:48:31;;;;;;;17.23;12.73;;;;;;;-145.23;100.00;58621.06;4944125;28;20346;-68
2022/09/11 06:51:02;;;;;;;15.60;13.98;;;;;;;-145.23;100.00;58621.06;4947949;28;20444;-67
2022/09/11 06:53:28;;;;;;;17.65;14.32;;;;;;;-145.23;100.00;58621.06;4945987;28;20607;-68
2022/09/11 06:55:59;;;;;;;16.20;13.48;;;;;;;-145.23;100.00;58621.06;4947966;28;20665;-68
2022/09/11 06:58:26;;;;;;;12.88;11.07;;;;;;;-145.23;100.00;58621.06;4953704;28;20338;-69
2022/09/11 07:00:52;;;;;;;15.98;11.98;;;;;;;-145.23;100.00;58621.06;4949347;28;20247;-68
2022/09/11 07:03:20;;;;;;;13.70;12.10;;;;;;;-145.23;100.00;58621.06;4947980;28;20265;-68
2022/09/11 07:05:47;;;;;;;14.63;12.57;;;;;;;-145.23;100.00;58621.06;4943368;28;20320;-68
2022/09/11 07:08:13;;;;;;;14.00;11.75;;;;;;;-145.23;100.00;58621.06;4943868;28;20235;-68
2022/09/11 07:10:40;;;;;;;14.50;11.70;;;;;;;-145.23;100.00;58621.06;4948193;28;20712;-69
2022/09/11 07:13:06;;;;;;;17.10;11.90;;;;;;;-145.23;100.00;58621.06;4943913;28;20741;-67
2022/09/11 07:15:33;;;;;;;15.60;12.13;;;;;;;-145.23;100.00;58621.06;4941167;28;20623;-68
2022/09/11 07:18:00;;;;;;;15.25;12.38;;;;;;;-145.23;100.00;58621.06;4942524;28;20239;-66
2022/09/11 07:20:28;;;;;;;11.68;10.48;;;;;;;-145.23;100.00;58621.06;4942146;28;20281;-66
2022/09/11 07:22:55;;;;;;;15.70;11.82;;;;;;;-145.23;100.00;58621.06;4949431;28;20307;-66
2022/09/11 07:25:21;;;;;;;11.88;10.10;;;;;;;-145.23;100.00;58621.06;4941853;28;20254;-66
2022/09/11 07:27:49;;;;;;;12.00;10.45;;;;;;;-145.23;100.00;58621.06;4943471;28;20235;-67
2022/09/11 07:30:16;;;;;;;13.40;11.55;;;;;;;-145.23;100.00;58621.06;4937844;28;20240;-67
2022/09/11 07:32:43;;;;;;;15.63;12.18;;;;;;;-145.23;100.00;58621.06;4932953;28;20258;-66
2022/09/11 07:35:09;;;;;;;13.98;11.45;;;;;;;-145.23;100.00;58621.06;4946532;28;20568;-67
2022/09/11 07:37:37;;;;;;;12.77;11.48;;;;;;;-145.23;100.00;58621.06;4944335;28;20231;-67
2022/09/11 07:40:05;;;;;;;12.32;10.48;;;;;;;-145.23;100.00;58621.06;4946131;28;20269;-66
2022/09/11 07:42:32;;;;;;;12.75;10.35;;;;;;;-145.23;100.00;58621.06;4944938;28;20318;-67
2022/09/11 07:44:59;;;;;;;15.00;12.48;;;;;;;-145.23;100.00;58621.06;4937283;28;20236;-66
2022/09/11 07:47:25;;;;;;;12.93;11.02;;;;;;;-145.23;100.00;58621.06;4942152;28;20265;-66
2022/09/11 07:49:52;;;;;;;14.18;11.73;;;;;;;-145.23;100.00;58621.06;4939615;28;20622;-67
2022/09/11 07:52:19;;;;;;;12.13;10.25;;;;;;;-145.23;100.00;58621.06;4941416;28;20246;-68
2022/09/11 07:54:47;;;;;;;13.75;11.02;;;;;;;-145.23;100.00;58621.06;4941424;28;20380;-67
2022/09/11 07:57:13;;;;;;;12.40;10.93;;;;;;;-145.23;100.00;58621.06;4941405;28;20353;-68
2022/09/11 07:59:40;;;;;;;13.05;10.80;;;;;;;-145.23;100.00;58621.06;4940510;28;20258;-68
2022/09/11 08:02:07;;;;;;;12.63;11.00;;;;;;;-145.23;100.00;58621.06;4941406;28;20239;-67
2022/09/11 08:04:33;;;;;;;13.20;10.27;;;;;;;-145.23;100.00;58621.06;4942513;28;20231;-67
2022/09/11 08:07:00;;;;;;;14.65;11.32;;;;;;;-145.23;100.00;58621.06;4943526;28;20329;-67
2022/09/11 08:09:27;;;;;;;11.57;9.98;;;;;;;-145.23;100.00;58621.06;4943243;28;20246;-68
2022/09/11 08:11:57;;;;;;;12.48;10.82;;;;;;;-145.23;100.00;58621.06;4942921;28;20247;-65
2022/09/11 08:14:25;;;;;;;16.42;11.45;;;;;;;-145.23;100.00;58621.06;4942368;28;20314;-67
2022/09/11 08:16:52;;;;;;;10.70;9.40;;;;;;;-145.23;100.00;58621.06;4942135;28;20227;-67
2022/09/11 08:19:21;;;;;;;10.95;9.80;;;;;;;-145.23;100.00;58621.06;4938451;28;20722;-67
2022/09/11 08:21:48;;;;;;;13.98;10.48;;;;;;;-145.23;100.00;58621.06;4941463;28;20226;-66
2022/09/11 08:24:16;;;;;;;12.43;10.85;;;;;;;-145.23;100.00;58621.06;4942199;28;20242;-67
2022/09/11 08:26:43;;;;;;;12.10;10.68;;;;;;;-145.23;100.00;58621.06;4940173;28;20768;-66
2022/09/11 08:29:11;;;;;;;11.13;8.82;;;;;;;-145.23;100.00;58621.06;4942285;28;20251;-68
2022/09/11 08:31:37;;;;;;;11.48;10.15;;;;;;;-145.23;100.00;58621.06;4942419;28;20271;-67
2022/09/11 08:34:04;;;;;;;12.85;9.95;;;;;;;-145.23;100.00;58621.06;4940794;28;20246;-67
2022/09/11 08:36:30;;;;;;;11.65;9.27;;;;;;;-145.23;100.00;58621.06;4942800;28;20379;-64
2022/09/11 08:38:59;;;;;;;13.25;10.25;;;;;;;-145.23;100.00;58621.06;4941330;28;20283;-65
2022/09/11 08:41:30;;;;;;;14.40;10.23;;;;;;;-145.23;100.00;58621.06;4940053;28;20246;-64
2022/09/11 08:44:00;;;;;;;12.18;9.55;;;;;;;-145.23;100.00;58621.06;4938071;28;20246;-66
2022/09/11 08:46:31;;;;;;;12.13;10.35;;;;;;;-145.23;100.00;58621.06;4942908;28;20247;-65
2022/09/11 08:49:03;;;;;;;12.88;9.68;;;;;;;-145.23;100.00;58621.06;4940109;28;20257;-66
2022/09/11 08:51:31;;;;;;;9.75;8.77;;;;;;;-145.23;100.00;58621.06;4939259;28;20318;-66
2022/09/11 08:53:58;;;;;;;9.75;8.65;;;;;;;-145.23;100.00;58621.06;4941890;28;20297;-66
2022/09/11 08:56:29;;;;;;;9.63;8.60;;;;;;;-145.23;100.00;58621.06;4944019;28;20249;-67
2022/09/11 08:59:09;;;;;;;11.10;8.82;;;;;;;-145.23;100.00;58621.06;4939256;28;20240;-66
2022/09/11 09:01:45;;;;;;;12.15;9.52;;;;;;;-145.23;100.00;58621.06;4939586;28;20701;-67
2022/09/11 09:04:25;;;;;;;12.75;8.95;;;;;;;-145.23;100.00;58621.06;4941764;28;20341;-64
2022/09/11 09:06:59;;;;;;;10.32;9.05;;;;;;;-145.23;100.00;58621.06;4939791;28;20321;-66
2022/09/11 09:09:30;;;;;;;9.15;7.82;;;;;;;-145.23;100.00;58621.06;4944545;28;20255;-64
2022/09/11 09:12:04;;;;;;;11.48;9.77;;;;;;;-145.23;100.00;58621.06;4943910;28;20342;-64
2022/09/11 09:14:44;;;;;;;12.63;9.30;;;;;;;-145.23;100.00;58621.06;4945364;28;20723;-66
2022/09/11 09:17:15;;;;;;;9.32;7.93;;;;;;;-145.23;100.00;58621.06;4939841;28;20317;-65
2022/09/11 09:19:46;;;;;;;11.15;9.38;;;;;;;-145.23;100.00;58621.06;4939083;28;20283;-66
2022/09/11 09:22:15;;;;;;;11.35;10.13;;;;;;;-145.23;100.00;58621.06;4938669;28;20730;-65
2022/09/11 09:24:43;;;;;;;11.27;9.27;;;;;;;-145.23;100.00;58621.06;4938466;28;20830;-65
2022/09/11 09:27:15;;;;;;;13.07;10.38;;;;;;;-145.23;100.00;58621.06;4942483;28;20270;-65
2022/09/11 09:29:46;;;;;;;10.57;9.23;;;;;;;-145.23;100.00;58621.06;4936280;28;20243;-64
2022/09/11 09:32:19;;;;;;;11.02;9.93;;;;;;;-145.23;100.00;58621.06;4935420;28;20815;-64
2022/09/11 09:34:46;;;;;;;10.05;8.95;;;;;;;-145.23;100.00;58621.06;4935569;28;20725;-65
2022/09/11 09:37:15;;;;;;;11.63;9.40;;;;;;;-145.23;100.00;58621.06;4942506;28;20662;-65
2022/09/11 09:39:42;;;;;;;11.27;8.65;;;;;;;-145.23;100.00;58621.06;4932605;28;20702;-65
2022/09/11 09:42:33;;;;;;;10.90;7.93;;;;;;;-145.23;100.00;58621.06;4945805;28;20259;-65
2022/09/11 09:45:14;;;;;;;9.82;7.95;;;;;;;-145.23;100.00;58621.06;4925419;28;20254;-64
2022/09/11 09:47:43;;;;;;;10.30;7.93;;;;;;;-145.23;100.00;58621.06;4939532;28;20295;-64
2022/09/11 09:50:18;;;;;;;10.55;9.32;;;;;;;-145.23;100.00;58621.06;4921933;28;20427;-65
2022/09/11 09:52:45;;;;;;;8.57;7.78;;;;;;;-145.23;100.00;58621.06;4927486;28;20680;-65
2022/09/11 09:55:14;;;;;;;9.45;8.55;;;;;;;-145.23;100.00;58621.06;4944623;28;20251;-64
2022/09/11 09:57:42;;;;;;;9.63;8.65;;;;;;;-145.23;100.00;58621.06;4941885;28;20240;-65
2022/09/11 10:00:16;;;;;;;9.60;8.68;;;;;;;-145.23;100.00;58621.06;4942935;28;20283;-65
2022/09/11 10:02:47;;;;;;;11.25;8.30;;;;;;;-145.23;100.00;58621.06;4947910;28;20526;-65
2022/09/11 10:05:20;;;;;;;8.73;7.82;;;;;;;-145.23;100.00;58621.06;4943013;28;20257;-64
2022/09/11 10:07:49;;;;;;;10.15;8.63;;;;;;;-145.23;100.00;58621.06;4943059;28;20310;-65
2022/09/11 10:10:25;;;;;;;10.02;8.15;;;;;;;-145.23;100.00;58621.06;4948928;28;20227;-65
2022/09/11 10:12:52;;;;;;;9.48;8.35;;;;;;;-145.23;100.00;58621.06;4945188;28;20235;-65
2022/09/11 10:15:21;;;;;;;10.95;8.80;;;;;;;-145.23;100.00;58621.06;4938569;28;20239;-64
2022/09/11 10:17:52;;;;;;;8.48;7.68;;;;;;;-145.23;100.00;58621.06;4942304;28;20664;-63
2022/09/11 10:20:25;;;;;;;9.20;8.25;;;;;;;-145.23;100.00;58621.06;4944586;28;20259;-64
2022/09/11 10:22:53;;;;;;;8.75;7.85;;;;;;;-145.23;100.00;58621.06;4948614;28;20238;-64
2022/09/11 10:25:21;;;;;;;9.90;8.85;;;;;;;-145.23;100.00;58621.06;4943923;28;20370;-64
2022/09/11 10:27:57;;;;;;;8.98;7.90;;;;;;;-145.23;100.00;58621.06;4942049;28;20239;-63
2022/09/11 10:30:30;;;;;;;8.25;7.40;;;;;;;-145.23;100.00;58621.06;4948760;28;20231;-64
2022/09/11 10:32:59;;;;;;;7.55;6.93;;;;;;;-145.23;100.00;58621.06;4934040;28;20232;-64
2022/09/11 10:35:27;;;;;;;8.40;7.47;;;;;;;-145.23;100.00;58621.06;4942295;28;20274;-66
2022/09/11 10:38:04;;;;;;;8.77;7.88;;;;;;;-145.23;100.00;58621.06;4941830;28;20243;-65
2022/09/11 10:40:30;;;;;;;7.18;6.22;;;;;;;-145.23;100.00;58621.06;4939496;28;20223;-66
2022/09/11 10:42:57;;;;;;;9.63;6.80;;;;;;;-145.23;100.00;58621.06;4941660;28;20243;-63
2022/09/11 10:45:24;;;;;;;7.55;6.80;;;;;;;-145.23;100.00;58621.06;4939090;28;20235;-63
2022/09/11 10:47:50;;;;;;;6.43;5.82;;;;;;;-145.23;100.00;58621.06;4937742;28;20235;-65
2022/09/11 10:50:24;;;;;;;6.72;6.03;;;;;;;-145.23;100.00;58621.06;4944117;28;20253;-66
2022/09/11 10:53:03;;;;;;;6.40;5.80;;;;;;;-145.23;100.00;58621.06;4940366;28;20239;-65
2022/09/11 10:55:32;;;;;;;7.82;6.55;;;;;;;-145.23;100.00;58621.06;4942390;28;20321;-64
2022/09/11 10:58:04;;;;;;;7.38;6.68;;;;;;;-145.23;100.00;58621.06;4937197;28;20244;-64
2022/09/11 11:00:31;;;;;;;6.15;5.55;;;;;;;-145.23;100.00;58621.06;4944938;28;20978;-64
2022/09/11 11:02:59;;;;;;;6.63;5.93;;;;;;;-145.23;100.00;58621.06;4946489;28;20250;-64
2022/09/11 11:05:32;;;;;;;11.13;7.18;;;;;;;-145.23;100.00;58621.06;4942680;28;20265;-66
2022/09/11 11:08:16;;;;;;;9.88;8.23;;;;;;;-145.23;100.00;58621.06;4942932;28;20326;-65
2022/09/11 11:10:59;;;;;;;9.38;8.48;;;;;;;-145.23;100.00;58621.06;4943046;28;20314;-66
2022/09/11 11:13:37;;;;;;;10.27;9.13;;;;;;;-145.23;100.00;58621.06;4938224;28;20263;-64
2022/09/11 11:16:08;;;;;;;9.52;8.63;;;;;;;-145.23;100.00;58621.06;4942764;28;20239;-66